x

South Bermuda - 300 Nm Sse Of Bermuda (41049) Wave Buoy

4:50pm - Sun 24th May 2015 All times are UTC.

  • Sig Wave height 3.9ft
  • Swell Direction
  • Peak Period 9s
  • Average Period 5s
  • Wind
    16mph, 18mph gusts
  • Sea Temp 79°f
  • Air Temp 76°f
  • Sea Pressure 1023.3mb

More Historic Weather Station data

Upgrade to MSW Pro to gain access to the past 30 days of data for over 8000 Wavebouys and Weather Stations around the globe.

Join Pro

Comparision Forecast

View Surf forecast
   
Sun 05/24 4:50pm 4ft 9s 5s 16 18 mph 1023.3mb 79f 76f
3:50pm 3.5ft 10s 5s 13 18 mph 1023.6mb 79f 76f
2:50pm 3.5ft 9s 5s 16 18 mph 1024.1mb 78f 76f
1:50pm 3.5ft 10s 6s 16 18 mph 1024mb 78f 76f
12:50pm 3.5ft 10s 6s 11 13 mph 1023.7mb 78f 76f
11:50am 3ft 10s 6s 11 13 mph 1023.6mb 78f 76f
10:50am 2.5ft 11s 5s 11 13 mph 1023.6mb 78f 76f
9:50am 3ft 11s 6s 11 13 mph 1023.2mb 78f 75f
8:50am 2.5ft 11s 6s 9 11 mph 1022.7mb 78f 75f
7:50am 2.5ft 11s 5s 9 11 mph 1022.4mb 78f 75f
6:50am 2.5ft 6s 5s 9 13 mph 1022.4mb 78f 75f
5:50am 3ft 8s 6s 9 11 mph 1022.8mb 78f 75f
4:50am 2.5ft 7s 5s 11 13 mph 1023.4mb 78f 75f
3:50am 2.5ft 7s 5s 9 11 mph 1024.2mb 78f 75f
2:50am 2.5ft 6s 5s 9 11 mph 1024.9mb 78f 75f
1:50am 2.5ft 8s 6s 11 13 mph 1024.9mb 78f 75f
12:50am 2.5ft 7s 5s 11 13 mph 1024.9mb 78f 75f
Sat 05/23 11:50pm 2.5ft 8s 5s 11 13 mph 1024.8mb 78f 75f
10:50pm 2.5ft 6s 5s 11 13 mph 1024.7mb 79f 76f
9:50pm 2.5ft 8s 5s 11 13 mph 1024.4mb 79f 76f
8:50pm 2.5ft 8s 5s 11 13 mph 1024.2mb 79f 76f
7:50pm 2.5ft 9s 5s 11 13 mph 1024.3mb 79f 76f
6:50pm 2.5ft 9s 6s 11 13 mph 1024.5mb 79f 76f
5:50pm 2.5ft 7s 5s 11 13 mph 1024.7mb 79f 75f
4:50pm 2.5ft 8s 5s 11 13 mph 1025.2mb 79f 75f
3:50pm 2.5ft 7s 5s 9 13 mph 1025.4mb 79f 75f
2:50pm 2.5ft 9s 5s 11 13 mph 1025.6mb 78f 76f
1:50pm 2.5ft 9s 5s 9 11 mph 1025.4mb 78f 76f
12:50pm 2.5ft 9s 6s 9 11 mph 1025.6mb 78f 76f
11:50am 2.5ft 8s 6s 11 13 mph 1025.2mb 78f 76f
10:50am 2.5ft 9s 6s 9 11 mph 1024.6mb 78f 76f
9:50am 2.5ft 9s 6s 11 13 mph 1024mb 78f 75f
8:50am 2.5ft 8s 6s 9 11 mph 1023.5mb 78f 75f
7:50am 2.5ft 9s 6s 7 9 mph 1023.4mb 78f 76f
6:50am 2.5ft 7s 6s 7 9 mph 1023.5mb 78f 76f
5:50am 2.5ft 10s 6s 9 11 mph 1023.6mb 78f 76f
4:50am 2.5ft 8s 6s 9 13 mph 1024.1mb 78f 76f
3:50am 2.5ft 9s 6s 9 11 mph 1024.7mb 78f 76f
2:50am 2.5ft 8s 6s 9 11 mph 1024.8mb 78f 76f
1:50am 2.5ft 9s 6s 9 11 mph 1025mb 78f 76f
12:50am 2.5ft 10s 6s 9 11 mph 1024.6mb 78f 76f
Fri 05/22 11:50pm 2.5ft 9s 6s 9 11 mph 1024mb 78f 76f
10:50pm 2.5ft 7s 6s 9 11 mph 1023.7mb 79f 76f
9:50pm 2.5ft 9s 6s 7 9 mph 1023.6mb 79f 76f
8:50pm 2.5ft 10s 6s 9 11 mph 1023.5mb 79f 76f
7:50pm 2.5ft 9s 6s 9 11 mph 1023.5mb 79f 76f
6:50pm 2.5ft 9s 5s 9 11 mph 1023.5mb 79f 76f
5:50pm 2.5ft 10s 5s 11
mph
1023.6mb 79f 76f
4:50pm 2.5ft 8s 5s 11 13 mph 1023.7mb 78f 76f
3:50pm 2.5ft 10s 5s 11 13 mph 1023.4mb 78f 76f
2:50pm 2.5ft 8s 5s 11 13 mph 1023.5mb 78f 75f
1:50pm 2.5ft 8s 5s 13 16 mph 1023.3mb 78f 75f
12:50pm 2.5ft 7s 6s 13 16 mph 1023mb 78f 75f
11:50am 2.5ft 10s 7s 11 13 mph 1023.1mb 78f 75f
10:50am 2.5ft 9s 8s 9 11 mph 1022.8mb 78f 75f
9:50am 2.5ft 10s 8s 7 9 mph 1022.2mb 77f 75f
8:50am 2.5ft 9s 7s 7 9 mph 1021.6mb 77f 74f
7:50am 2.5ft 10s 8s 4 7 mph 1021.3mb 78f 75f
6:50am 2.5ft 8s 8s 2 4 mph 1021.2mb 77f 75f
5:50am 2.5ft 9s 7s 2 4 mph 1021mb 78f 75f
4:50am 2.5ft 9s 7s 2 4 mph 1021.3mb 78f 75f
3:50am 3ft 10s 7s 2 4 mph 1021.7mb 78f 75f
2:50am 2.5ft 8s 7s 4 7 mph 1021.9mb 78f 75f
1:50am 3ft 10s 7s 2 4 mph 1022mb 79f 75f
12:50am 3ft 8s 7s 4 7 mph 1021.7mb 79f 75f
Thu 05/21 11:50pm 3ft 8s 7s 2 4 mph 1021.2mb 80f 75f
10:50pm 3ft 9s 7s 4 7 mph 1021mb 80f 75f
9:50pm 3ft 9s 7s 4 7 mph 1020.4mb 80f 75f
8:50pm 3.5ft 8s 7s 4
mph
1020.3mb 80f 75f
7:50pm 3ft 10s 7s 4 7 mph 1020.2mb 80f 75f
6:50pm 3.5ft 9s 7s 2 7 mph 1020.1mb 80f 75f
5:50pm 3ft 8s 7s 4 7 mph 1020.1mb 80f 75f
4:50pm 3ft 9s 7s 4 7 mph 1020.1mb 80f 75f
3:50pm 3.5ft 8s 7s 4
mph
1020.3mb 79f 75f
2:50pm 3ft 9s 7s 4
mph
1020.3mb 78f 74f
1:50pm 3.5ft 9s 7s 7 9 mph 1020mb 78f 74f
12:50pm 3.5ft 7s 7s 7 9 mph 1019.6mb 77f 74f
11:50am 3.5ft 9s 7s 7 11 mph 1019.4mb 77f 74f
10:50am 3.5ft 8s 7s 7 9 mph 1018.9mb 77f 74f
9:50am 3.5ft 8s 7s 7
mph
1018.4mb 77f 73f
8:50am 3.5ft 9s 7s 4
mph
1018.2mb 77f 73f
7:50am 3.5ft 8s 7s 2
mph
1018mb 77f 74f
6:50am 3.5ft 8s 7s 2
mph
1018.2mb 78f 74f
5:50am 3.5ft 7s 7s 2
mph
1018.1mb 78f 74f
4:50am 3.5ft 8s 6s 4
mph
1018.5mb 78f 74f
3:50am 3.5ft 8s 6s 4 7 mph 1019mb 78f 74f
2:50am 4ft 8s 6s 2 4 mph 1019mb 78f 74f
1:50am 4ft 8s 6s  -  2 mph 1018.9mb 78f 74f
12:50am 4.5ft 8s 6s 2
mph
1018.2mb 78f 74f
Wed 05/20 11:50pm 4ft 8s 6s 4 7 mph 1017.8mb 78f 74f
10:50pm 4ft 8s 6s 4 7 mph 1017.5mb 79f 74f
9:50pm 4ft 8s 6s 4 7 mph 1017.1mb 79f 75f
8:50pm 4ft 8s 6s 4 9 mph 1017mb 80f 75f
7:50pm 4ft 7s 6s 4 7 mph 1016.9mb 81f 75f
6:50pm 4ft 8s 6s 2 4 mph 1017.1mb 81f 75f